Gordon Heights, New York
Current Conditions -  °F | °C
As of 4:56 PM on Sunday 25 Jan 2015 (Local Time) from KHWV Reporting Station
Clear Clear  
Wind Chill: -2°   Ceiling: Unl
Heat Index:   Visibility: 10mi
Dew Point: -11°   Wind: 12mph
Humidity: 37%   Direction: 320°NW
Pressure: 29.83"   Gusts: NA
Location:  40.8228°N, 72.9822°W
Report Text: KHWV 252156Z AUTO 32010KT 10SM CLR 02/M11 A2983 RMK AO2 SLP103 T00221111 TSNO
Loading
Personal Weather Stations






























Interactive Weather Map New forecast layout! Learn more

10-Day Weather Forecast

Advertisements
Track Severe Weather on mobile